createdAt,value
2019-05-29T00:01:56.324Z,101369.34
2019-05-29T00:04:24.226Z,101374.38
2019-05-29T00:06:51.957Z,101380.23
2019-05-29T00:09:19.780Z,101382.19
2019-05-29T00:11:47.483Z,101379.59
2019-05-29T00:14:22.745Z,101392.06
2019-05-29T00:16:44.721Z,101387.50
2019-05-29T00:19:12.774Z,101398.56
2019-05-29T00:21:40.517Z,101403.49
2019-05-29T00:24:12.483Z,101402.47
2019-05-29T00:26:40.260Z,101403.73
2019-05-29T00:29:08.006Z,101408.84
2019-05-29T00:31:35.731Z,101412.46
2019-05-29T00:34:11.798Z,101411.72
2019-05-29T00:36:39.588Z,101409.02
2019-05-29T00:39:08.540Z,101412.98
2019-05-29T00:41:37.286Z,101416.20
2019-05-29T00:44:05.024Z,101414.22
2019-05-29T00:46:32.937Z,101419.95
2019-05-29T00:49:00.689Z,101425.27
2019-05-29T00:51:28.519Z,101427.86
2019-05-29T00:53:56.366Z,101433.92
2019-05-29T00:56:24.223Z,101417.83
2019-05-29T00:58:51.982Z,101439.66
2019-05-29T01:01:20.131Z,101445.28
2019-05-29T01:03:47.973Z,101446.47
2019-05-29T01:06:16.066Z,101450.33
2019-05-29T01:08:43.880Z,101450.51
2019-05-29T01:11:14.691Z,101455.70
2019-05-29T01:13:46.997Z,101454.66
2019-05-29T01:16:11.935Z,101450.78
2019-05-29T01:18:39.716Z,101452.05
2019-05-29T01:21:07.470Z,101450.12
2019-05-29T01:23:35.335Z,101450.72
2019-05-29T01:26:03.086Z,101443.52
2019-05-29T01:28:31.188Z,101451.91
2019-05-29T01:30:58.946Z,101454.55
2019-05-29T01:33:26.683Z,101450.96
2019-05-29T01:35:54.452Z,101434.00
2019-05-29T01:38:23.389Z,101460.61
2019-05-29T01:40:51.251Z,101460.55
2019-05-29T01:43:19.322Z,101463.30
2019-05-29T01:45:47.162Z,101462.45
2019-05-29T01:48:15.406Z,101451.52
2019-05-29T01:50:43.232Z,101468.97
2019-05-29T01:53:19.845Z,101470.91
2019-05-29T01:55:47.631Z,101476.39
2019-05-29T01:58:15.676Z,101480.94
2019-05-29T02:00:43.514Z,101447.09
2019-05-29T02:03:11.233Z,101476.42
2019-05-29T02:05:38.991Z,101478.09
2019-05-29T02:08:06.975Z,101480.79
2019-05-29T02:10:34.685Z,101486.16
2019-05-29T02:13:02.399Z,101480.84
2019-05-29T02:15:33.834Z,101493.14
2019-05-29T02:17:59.648Z,101490.04
2019-05-29T02:20:27.367Z,101498.22
2019-05-29T02:22:55.082Z,101488.23
2019-05-29T02:25:22.820Z,101491.97
2019-05-29T02:27:50.584Z,101470.16
2019-05-29T02:30:20.337Z,101497.73
2019-05-29T02:32:55.398Z,101502.69
2019-05-29T02:35:24.766Z,101509.28
2019-05-29T02:37:52.896Z,101517.12
2019-05-29T02:40:21.338Z,101520.95
2019-05-29T02:42:50.180Z,101522.98
2019-05-29T02:45:19.453Z,101527.17
2019-05-29T02:47:47.419Z,101534.17
2019-05-29T02:50:15.238Z,101536.29
2019-05-29T02:52:43.239Z,101537.42
2019-05-29T02:55:10.975Z,101543.86
2019-05-29T02:57:38.730Z,101534.87
2019-05-29T03:00:08.285Z,101523.09
2019-05-29T03:02:36.326Z,101538.78
2019-05-29T03:05:23.741Z,101544.97
2019-05-29T03:07:56.663Z,101553.05
2019-05-29T03:10:26.588Z,101554.91
2019-05-29T03:12:54.456Z,101559.39
2019-05-29T03:15:23.521Z,101564.45
2019-05-29T03:17:51.807Z,101567.61
2019-05-29T03:20:19.532Z,101570.22
2019-05-29T03:22:47.306Z,101571.12
2019-05-29T03:25:15.081Z,101575.09
2019-05-29T03:27:42.827Z,101576.45
2019-05-29T03:30:10.677Z,101582.66
2019-05-29T03:32:46.725Z,101580.17
2019-05-29T03:35:28.195Z,101580.22
2019-05-29T03:37:58.645Z,101578.77
2019-05-29T03:40:24.331Z,101586.01
2019-05-29T03:42:52.060Z,101587.41
2019-05-29T03:45:19.795Z,101591.33
2019-05-29T03:47:47.523Z,101594.41
2019-05-29T03:50:15.978Z,101592.73
2019-05-29T03:52:43.985Z,101592.66
2019-05-29T03:55:12.290Z,101598.52
2019-05-29T03:57:40.077Z,101597.61
2019-05-29T04:00:07.838Z,101605.80
2019-05-29T04:02:37.900Z,101607.99
2019-05-29T04:05:05.639Z,101607.03
2019-05-29T04:07:48.139Z,101609.22
2019-05-29T04:10:10.078Z,101613.11
2019-05-29T04:12:38.246Z,101616.51
2019-05-29T04:15:06.414Z,101611.96
2019-05-29T04:17:35.492Z,101620.04
2019-05-29T04:20:03.419Z,101620.88
2019-05-29T04:22:34.387Z,101628.70
2019-05-29T04:25:03.226Z,101632.06
2019-05-29T04:27:31.966Z,101640.71
2019-05-29T04:29:59.895Z,101640.95
2019-05-29T04:32:28.119Z,101646.29
2019-05-29T04:34:56.040Z,101650.19
2019-05-29T04:37:23.779Z,101653.89
2019-05-29T04:39:51.496Z,101655.95
2019-05-29T04:42:19.251Z,101659.86
2019-05-29T04:45:10.956Z,101660.08
2019-05-29T04:47:35.174Z,101670.48
2019-05-29T04:50:03.082Z,101677.67
2019-05-29T04:52:31.369Z,101686.92
2019-05-29T04:54:59.295Z,101673.92
2019-05-29T04:57:27.145Z,101695.55
2019-05-29T04:59:54.911Z,101688.48
2019-05-29T05:02:22.635Z,101697.30
2019-05-29T05:04:50.385Z,101703.65
2019-05-29T05:07:18.146Z,101700.42
2019-05-29T05:09:45.862Z,101706.59
2019-05-29T05:12:13.606Z,101685.95
2019-05-29T05:14:41.350Z,101693.31
2019-05-29T05:17:23.301Z,101716.67
2019-05-29T05:19:47.477Z,101717.78
2019-05-29T05:22:15.275Z,101716.76
2019-05-29T05:24:44.157Z,101727.61
2019-05-29T05:27:12.067Z,101732.27
2019-05-29T05:29:40.497Z,101743.59
2019-05-29T05:32:08.380Z,101739.09
2019-05-29T05:34:40.976Z,101741.31
2019-05-29T05:37:06.256Z,101737.55
2019-05-29T05:39:35.181Z,101746.46
2019-05-29T05:42:03.098Z,101746.28
2019-05-29T05:44:30.890Z,101757.71
2019-05-29T05:46:58.658Z,101752.09
2019-05-29T05:49:26.406Z,101762.13
2019-05-29T05:51:54.128Z,101765.42
2019-05-29T05:54:21.974Z,101768.22
2019-05-29T05:56:54.634Z,101768.11
2019-05-29T05:59:22.387Z,101771.02
2019-05-29T06:01:50.124Z,101773.75
2019-05-29T06:04:17.877Z,101772.77
2019-05-29T06:06:46.471Z,101772.44
2019-05-29T06:09:14.358Z,101783.59
2019-05-29T06:11:42.548Z,101792.25
2019-05-29T06:14:10.438Z,101793.70
2019-05-29T06:16:38.628Z,101801.78
2019-05-29T06:19:06.450Z,101789.48
2019-05-29T06:21:34.648Z,101804.53
2019-05-29T06:24:02.382Z,101803.13
2019-05-29T06:26:30.097Z,101809.31
2019-05-29T06:28:57.852Z,101810.83
2019-05-29T06:31:27.443Z,101812.05
2019-05-29T06:34:13.349Z,101819.62
2019-05-29T06:36:41.599Z,101811.11
2019-05-29T06:39:10.591Z,101818.91
2019-05-29T06:41:38.324Z,101813.25
2019-05-29T06:44:06.105Z,101813.23
2019-05-29T06:46:34.374Z,101823.17
2019-05-29T06:49:02.225Z,101825.09
2019-05-29T06:51:30.015Z,101818.68
2019-05-29T06:53:57.707Z,101820.37
2019-05-29T06:56:25.414Z,101829.92
2019-05-29T06:58:53.156Z,101835.45
2019-05-29T07:01:20.921Z,101835.14
2019-05-29T07:03:48.735Z,101835.92
2019-05-29T07:06:23.460Z,101833.96
2019-05-29T07:08:51.177Z,101837.44
2019-05-29T07:11:18.910Z,101841.70
2019-05-29T07:13:49.710Z,101844.78
2019-05-29T07:16:16.047Z,101836.75
2019-05-29T07:19:20.588Z,101840.36
2019-05-29T07:21:13.275Z,101850.23
2019-05-29T07:23:41.320Z,101847.88
2019-05-29T07:26:09.156Z,101850.29
2019-05-29T07:28:37.252Z,101851.64
2019-05-29T07:31:06.473Z,101848.48
2019-05-29T07:33:34.229Z,101853.41
2019-05-29T07:36:01.936Z,101845.55
2019-05-29T07:38:29.679Z,101864.92
2019-05-29T07:40:57.401Z,101871.76
2019-05-29T07:43:28.846Z,101874.72
2019-05-29T07:45:58.127Z,101878.36
2019-05-29T07:48:25.908Z,101881.12
2019-05-29T07:51:06.240Z,101878.64
2019-05-29T07:53:23.075Z,101883.59
2019-05-29T07:55:50.793Z,101888.08
2019-05-29T07:58:18.522Z,101880.32
2019-05-29T08:01:05.073Z,101887.84
2019-05-29T08:03:15.995Z,101887.77
2019-05-29T08:05:47.775Z,101887.27
2019-05-29T08:08:13.163Z,101885.80
2019-05-29T08:10:41.789Z,101888.30
2019-05-29T08:13:09.567Z,101890.63
2019-05-29T08:15:51.988Z,101891.89
2019-05-29T08:18:08.412Z,101897.68
2019-05-29T08:20:41.919Z,101901.47
2019-05-29T08:23:09.944Z,101902.25
2019-05-29T08:25:37.694Z,101902.03
2019-05-29T08:28:05.516Z,101897.61
2019-05-29T08:30:33.230Z,101903.90
2019-05-29T08:33:00.990Z,101903.39
2019-05-29T08:35:28.751Z,101910.80
2019-05-29T08:37:56.604Z,101907.64
2019-05-29T08:40:24.407Z,101912.27
2019-05-29T08:42:52.155Z,101914.78
2019-05-29T08:45:19.969Z,101909.72
2019-05-29T08:47:47.811Z,101918.27
2019-05-29T08:50:18.552Z,101927.95
2019-05-29T08:52:45.986Z,101922.55
2019-05-29T08:55:14.047Z,101929.73
2019-05-29T08:57:52.413Z,101929.67
2019-05-29T09:00:20.243Z,101936.80
2019-05-29T09:02:49.167Z,101939.64
2019-05-29T09:05:17.186Z,101925.67
2019-05-29T09:07:46.420Z,101939.93
2019-05-29T09:10:14.389Z,101942.16
2019-05-29T09:12:45.928Z,101938.13
2019-05-29T09:15:11.576Z,101937.70
2019-05-29T09:17:39.369Z,101938.45
2019-05-29T09:20:07.195Z,101942.48
2019-05-29T09:22:35.010Z,101937.79
2019-05-29T09:25:02.786Z,101940.62
2019-05-29T09:27:30.525Z,101947.32
2019-05-29T09:29:58.322Z,101942.37
2019-05-29T09:32:49.360Z,101943.20
2019-05-29T09:35:02.424Z,101941.79
2019-05-29T09:37:30.158Z,101937.48
2019-05-29T09:39:57.880Z,101946.65
2019-05-29T09:42:25.647Z,101946.06
2019-05-29T09:44:53.379Z,101943.39
2019-05-29T09:47:22.230Z,101933.55
2019-05-29T09:49:50.022Z,101953.03
2019-05-29T09:52:17.767Z,101936.81
2019-05-29T09:54:45.483Z,101941.87
2019-05-29T09:57:15.333Z,101941.17
2019-05-29T09:59:42.679Z,101948.33
2019-05-29T10:02:10.399Z,101946.30
2019-05-29T10:04:38.149Z,101950.48
2019-05-29T10:07:05.884Z,101946.43
2019-05-29T10:09:42.258Z,101951.01
2019-05-29T10:12:09.969Z,101961.48
2019-05-29T10:14:37.723Z,101964.01
2019-05-29T10:17:11.824Z,101960.46
2019-05-29T10:19:34.888Z,101969.97
2019-05-29T10:22:03.918Z,101967.53
2019-05-29T10:24:32.581Z,101971.38
2019-05-29T10:27:01.610Z,101973.70
2019-05-29T10:29:30.211Z,101973.70
2019-05-29T10:31:57.957Z,101978.64
2019-05-29T10:34:25.663Z,101976.02
2019-05-29T10:36:54.758Z,101980.11
2019-05-29T10:39:22.720Z,101978.42
2019-05-29T10:41:51.508Z,101978.20
2019-05-29T10:44:24.032Z,101967.67
2019-05-29T10:46:54.080Z,101978.31
2019-05-29T10:49:21.291Z,101987.57
2019-05-29T10:52:09.072Z,101983.09
2019-05-29T10:54:18.509Z,101982.86
2019-05-29T10:56:46.882Z,101984.45
2019-05-29T10:59:14.732Z,101899.05
2019-05-29T11:01:42.487Z,101978.50
2019-05-29T11:04:10.245Z,101973.94
2019-05-29T11:06:40.751Z,101977.84
2019-05-29T11:09:07.438Z,101973.79
2019-05-29T11:11:35.173Z,101972.83
2019-05-29T11:14:02.911Z,101975.00
2019-05-29T11:16:30.644Z,101981.23
2019-05-29T11:18:58.543Z,101977.11
2019-05-29T11:21:30.040Z,101979.89
2019-05-29T11:23:59.418Z,101978.87
2019-05-29T11:26:27.141Z,101981.96
2019-05-29T11:28:54.856Z,101982.17
2019-05-29T11:31:22.611Z,101990.95
2019-05-29T11:33:50.763Z,101992.39
2019-05-29T11:36:18.526Z,101987.73
2019-05-29T11:38:46.333Z,101987.14
2019-05-29T11:41:25.585Z,101985.86
2019-05-29T11:43:43.518Z,101996.58
2019-05-29T11:46:11.259Z,101990.68
2019-05-29T11:48:39.005Z,101987.75
2019-05-29T11:51:06.722Z,101990.88
2019-05-29T11:53:34.467Z,101989.37
2019-05-29T11:56:02.241Z,101988.86
2019-05-29T11:58:31.688Z,101992.62
2019-05-29T12:01:06.968Z,101988.10
2019-05-29T12:03:34.770Z,101983.43
2019-05-29T12:06:03.317Z,101981.48
2019-05-29T12:08:31.098Z,101991.05
2019-05-29T12:10:59.456Z,101983.89
2019-05-29T12:13:27.414Z,101992.78
2019-05-29T12:15:55.956Z,101983.67
2019-05-29T12:18:24.659Z,101981.86
2019-05-29T12:20:53.897Z,101983.52
2019-05-29T12:23:26.358Z,101984.41
2019-05-29T12:26:10.298Z,101988.62
2019-05-29T12:28:20.813Z,101990.41
2019-05-29T12:30:48.552Z,101988.83
2019-05-29T12:33:16.275Z,101980.81
2019-05-29T12:35:44.022Z,101987.03
2019-05-29T12:38:22.418Z,101983.80
2019-05-29T12:40:50.310Z,101983.97
2019-05-29T12:43:27.147Z,101977.75
2019-05-29T12:45:47.570Z,101986.24
2019-05-29T12:48:16.163Z,101982.52
2019-05-29T12:50:44.424Z,101978.91
2019-05-29T12:53:28.973Z,101981.47
2019-05-29T12:55:41.595Z,101968.17
2019-05-29T12:58:09.688Z,101977.50
2019-05-29T13:00:37.409Z,101982.14
2019-05-29T13:03:05.376Z,101982.36
2019-05-29T13:05:33.139Z,101975.91
2019-05-29T13:08:00.943Z,101969.09
2019-05-29T13:10:30.919Z,101977.03
2019-05-29T13:13:10.909Z,101966.95
2019-05-29T13:15:36.856Z,101970.64
2019-05-29T13:18:09.487Z,101980.72
2019-05-29T13:20:34.419Z,101979.45
2019-05-29T13:23:03.588Z,101977.47
2019-05-29T13:25:31.635Z,101972.66
2019-05-29T13:28:00.851Z,101973.46
2019-05-29T13:30:29.108Z,101977.12
2019-05-29T13:33:02.299Z,101979.99
2019-05-29T13:35:26.624Z,101956.85
2019-05-29T13:37:54.534Z,101980.14
2019-05-29T13:40:22.320Z,101980.33
2019-05-29T13:42:50.299Z,101978.00
2019-05-29T13:48:07.552Z,101974.97
2019-05-29T13:50:35.981Z,101980.88
2019-05-29T13:53:03.790Z,101982.61
2019-05-29T13:55:31.622Z,101980.84
2019-05-29T13:57:59.574Z,101976.91
2019-05-29T14:00:35.175Z,101977.72
2019-05-29T14:02:58.231Z,101981.75
2019-05-29T14:05:26.223Z,101982.23
2019-05-29T14:07:53.993Z,101979.68
2019-05-29T14:10:21.720Z,101977.98
2019-05-29T14:12:49.460Z,101970.36
2019-05-29T14:15:34.828Z,101983.94
2019-05-29T14:18:02.931Z,101982.15
2019-05-29T14:20:30.811Z,101983.50
2019-05-29T14:22:58.530Z,101993.23
2019-05-29T14:25:26.256Z,101987.47
2019-05-29T14:27:54.051Z,101984.24
2019-05-29T14:30:21.791Z,101985.31
2019-05-29T14:32:49.529Z,101993.41
2019-05-29T14:35:17.230Z,101984.22
2019-05-29T14:37:44.956Z,101990.44
2019-05-29T14:40:12.727Z,101986.37
2019-05-29T14:42:40.452Z,101987.72
2019-05-29T14:45:08.527Z,101983.97
2019-05-29T14:47:46.639Z,101981.05
2019-05-29T14:50:11.237Z,101984.30
2019-05-29T14:52:40.361Z,101987.11
2019-05-29T14:55:09.025Z,101986.03
2019-05-29T14:57:37.547Z,101984.67
2019-05-29T15:00:16.367Z,101979.50
2019-05-29T15:02:34.818Z,101986.95
2019-05-29T15:05:03.699Z,101981.81
2019-05-29T15:07:31.548Z,101993.73
2019-05-29T15:10:00.282Z,101998.31
2019-05-29T15:12:28.027Z,101996.59
2019-05-29T15:14:55.782Z,101989.75
2019-05-29T15:17:23.503Z,101994.16
2019-05-29T15:19:51.210Z,101987.69
2019-05-29T15:31:48.041Z,101984.36
2019-05-29T15:34:16.534Z,101996.00
2019-05-29T15:40:17.139Z,102001.11
2019-05-29T15:43:39.879Z,101992.28
2019-05-29T15:46:17.691Z,102002.22
2019-05-29T15:51:53.850Z,102004.77
2019-05-29T15:54:24.765Z,102002.16
2019-05-29T15:57:01.206Z,102005.86
2019-05-29T15:59:29.262Z,102004.31
2019-05-29T16:02:25.635Z,102013.70
2019-05-29T16:22:12.225Z,102000.02
2019-05-29T16:24:54.889Z,101997.50
2019-05-29T16:27:22.797Z,101984.41
2019-05-29T16:29:53.250Z,101996.67
2019-05-29T16:39:40.237Z,101995.78
2019-05-29T16:42:11.885Z,101992.54
2019-05-29T16:51:14.658Z,101996.97
2019-05-29T17:03:26.430Z,101990.83
2019-05-29T17:05:56.964Z,101954.11
2019-05-29T17:53:07.074Z,101996.23
2019-05-29T17:55:59.489Z,101996.49
2019-05-29T17:58:27.444Z,101994.77
2019-05-29T18:04:52.734Z,101996.56
2019-05-29T18:07:24.863Z,101996.23
2019-05-29T18:10:27.203Z,101987.23
2019-05-29T18:25:56.165Z,101994.88
2019-05-29T18:28:24.164Z,101989.88
2019-05-29T18:30:52.141Z,101994.77
2019-05-29T18:43:13.208Z,101992.49
2019-05-29T18:49:20.364Z,101999.73
2019-05-29T18:51:51.227Z,102003.41
2019-05-29T18:54:23.507Z,102005.16
2019-05-29T18:57:13.810Z,102011.58
2019-05-29T19:00:10.130Z,102007.08
2019-05-29T19:03:09.561Z,102004.87
2019-05-29T19:06:21.692Z,102010.42
2019-05-29T19:12:49.920Z,101828.70
2019-05-29T19:25:28.914Z,102017.02
2019-05-29T19:27:56.964Z,102016.22
2019-05-29T19:30:24.905Z,102013.05
2019-05-29T19:35:49.132Z,102015.39
2019-05-29T19:38:17.007Z,102025.34
2019-05-29T19:40:44.818Z,102024.52
2019-05-29T19:43:13.008Z,102021.44
2019-05-29T19:45:40.785Z,102028.16
2019-05-29T19:48:10.706Z,102024.72
2019-05-29T19:51:25.215Z,102027.33
2019-05-29T19:54:15.459Z,102029.61
2019-05-29T19:57:49.837Z,102031.33
2019-05-29T19:59:59.554Z,102030.20
2019-05-29T20:02:28.469Z,102036.58
2019-05-29T20:04:56.405Z,102037.11
2019-05-29T20:08:39.946Z,102033.34
2019-05-29T20:11:10.426Z,102034.59
2019-05-29T20:30:12.311Z,102037.84
2019-05-29T20:32:40.254Z,102042.29
2019-05-29T20:35:08.096Z,102046.63
2019-05-29T20:44:30.627Z,102048.15
2019-05-29T20:47:03.979Z,102045.69
2019-05-29T20:49:47.477Z,102038.30
2019-05-29T20:52:20.778Z,102042.97
2019-05-29T20:54:48.641Z,102040.70
2019-05-29T20:57:26.229Z,102041.39
2019-05-29T20:59:54.047Z,102043.92
2019-05-29T21:11:50.242Z,102044.09
2019-05-29T21:14:23.578Z,102040.01
2019-05-29T21:16:51.392Z,102046.39
2019-05-29T21:19:19.241Z,102041.66
2019-05-29T21:21:53.027Z,102050.83
2019-05-29T21:24:21.123Z,102042.25
2019-05-29T21:27:08.329Z,102038.44
2019-05-29T21:29:37.205Z,102041.28
2019-05-29T21:32:14.907Z,102041.36
2019-05-29T21:43:52.420Z,102042.20
2019-05-29T21:46:20.564Z,102039.77
2019-05-29T21:48:48.461Z,102041.58
2019-05-29T21:51:16.238Z,102038.78
2019-05-29T21:53:45.569Z,102040.97
2019-05-29T21:56:28.962Z,102038.95
2019-05-29T21:59:03.520Z,102043.08
2019-05-29T22:14:53.352Z,101965.43
2019-05-29T22:17:20.944Z,102039.28
2019-05-29T22:19:50.765Z,102033.67
2019-05-29T22:22:18.736Z,102035.04
2019-05-29T22:24:49.342Z,102037.36
2019-05-29T22:27:17.229Z,102029.56
2019-05-29T22:29:45.094Z,102028.74
2019-05-29T22:32:12.921Z,102031.70
2019-05-29T22:35:17.255Z,102030.14
2019-05-29T22:37:48.021Z,102023.53
2019-05-29T22:40:20.816Z,102024.83
2019-05-29T22:42:48.780Z,102027.00
2019-05-29T22:45:16.708Z,102026.36
2019-05-29T22:47:44.547Z,102019.03
2019-05-29T22:50:14.190Z,102023.09
2019-05-29T22:52:42.309Z,102022.05
2019-05-29T22:55:10.164Z,102012.54
2019-05-29T22:57:38.117Z,102013.06
2019-05-29T23:00:05.994Z,102009.53
2019-05-29T23:02:33.777Z,102007.59
2019-05-29T23:05:03.641Z,102018.33
2019-05-29T23:07:37.157Z,102005.94
2019-05-29T23:10:05.511Z,102008.96
2019-05-29T23:12:33.480Z,102003.17
2019-05-29T23:15:02.652Z,102006.26
2019-05-29T23:17:30.771Z,101999.32
2019-05-29T23:19:58.689Z,102002.27
2019-05-29T23:22:26.925Z,102002.98
2019-05-29T23:24:54.902Z,102000.40
2019-05-29T23:27:22.767Z,101993.26
2019-05-29T23:29:50.672Z,101991.92
2019-05-29T23:32:18.533Z,101987.60
2019-05-29T23:34:46.321Z,101981.63
2019-05-29T23:40:29.858Z,101986.58
2019-05-29T23:42:57.711Z,101986.23
2019-05-29T23:45:25.705Z,101982.73
2019-05-29T23:51:22.328Z,101982.94
2019-05-29T23:53:50.187Z,101980.69
2019-05-29T23:56:18.068Z,101982.20
2019-05-29T23:58:45.873Z,101986.05
